Time;durP1;ratioP1;P1;durP2;ratioP2;P2;SDS_P1;SDS_P2;PMS_P1;PMS_P2;Temp;Humidity;BMP_temperature;BMP_pressure;BME280_temperature;BME280_humidity;BME280_pressure;Samples;Min_cycle;Max_cycle;Signal;HPM_P1;HPM_P2
2022/07/18 00:00:10;;;;;;;7.40;3.60;;;16.90;99.90;;;;;;5029576;28;20041;-78
2022/07/18 00:02:35;;;;;;;6.03;3.90;;;16.90;99.90;;;;;;5027790;28;20498;-77
2022/07/18 00:05:02;;;;;;;6.57;4.18;;;16.90;99.90;;;;;;5055760;28;20053;-76
2022/07/18 00:07:28;;;;;;;9.57;4.25;;;16.90;99.90;;;;;;5052567;28;20044;-75
2022/07/18 00:09:54;;;;;;;6.28;4.22;;;16.90;99.90;;;;;;5025950;28;20063;-77
2022/07/18 00:12:19;;;;;;;5.97;4.80;;;16.90;99.90;;;;;;5054212;28;20076;-76
2022/07/18 00:14:45;;;;;;;8.38;4.43;;;16.90;99.90;;;;;;5041032;28;20052;-75
2022/07/18 00:17:12;;;;;;;6.85;4.30;;;16.90;99.90;;;;;;5056592;28;20033;-76
2022/07/18 00:19:38;;;;;;;8.35;4.60;;;16.90;99.90;;;;;;5077130;28;20040;-74
2022/07/18 00:22:05;;;;;;;6.70;4.50;;;16.90;99.90;;;;;;5034235;28;20216;-79
2022/07/18 00:24:34;;;;;;;8.73;4.90;;;16.90;99.90;;;;;;5025743;28;21286;-78
2022/07/18 00:27:00;;;;;;;7.35;4.28;;;16.90;99.90;;;;;;5029117;28;20037;-79
2022/07/18 00:29:26;;;;;;;8.63;4.45;;;16.90;99.90;;;;;;5014358;28;20334;-77
2022/07/18 00:31:52;;;;;;;8.73;4.85;;;16.90;99.90;;;;;;5013378;28;20037;-80
2022/07/18 00:34:18;;;;;;;9.50;4.72;;;16.80;99.90;;;;;;5058292;28;20057;-77
2022/07/18 00:36:43;;;;;;;7.60;4.93;;;16.90;99.90;;;;;;5023678;28;20384;-79
2022/07/18 00:39:09;;;;;;;8.05;4.88;;;16.80;99.90;;;;;;5048959;28;20033;-80
2022/07/18 00:41:35;;;;;;;11.63;4.80;;;16.80;99.90;;;;;;5031596;28;20079;-76
2022/07/18 00:44:02;;;;;;;14.73;5.25;;;16.80;99.90;;;;;;5040533;28;20484;-76
2022/07/18 00:46:28;;;;;;;7.55;5.15;;;16.70;99.90;;;;;;5039904;28;20121;-78
2022/07/18 00:48:55;;;;;;;9.27;5.15;;;16.70;99.90;;;;;;5004114;28;20050;-78
2022/07/18 00:51:21;;;;;;;8.40;5.15;;;16.70;99.90;;;;;;5031142;28;20131;-81
2022/07/18 00:53:48;;;;;;;5.72;4.80;;;16.60;99.90;;;;;;5012389;28;20041;-77
2022/07/18 00:56:18;;;;;;;7.30;4.88;;;16.60;99.90;;;;;;5045169;28;20041;-79
2022/07/18 00:58:44;;;;;;;11.27;4.82;;;16.50;99.90;;;;;;5013817;28;20132;-77
2022/07/18 01:03:56;;;;;;;7.53;4.93;;;16.50;99.90;;;;;;5072989;28;20385;-79
2022/07/18 01:06:22;;;;;;;6.32;4.70;;;16.40;99.90;;;;;;5035347;28;20053;-78
2022/07/18 01:08:48;;;;;;;11.43;4.97;;;16.40;99.90;;;;;;5040401;28;20112;-77
2022/07/18 01:11:14;;;;;;;6.50;4.95;;;16.30;99.90;;;;;;5013556;28;20527;-77
2022/07/18 01:13:40;;;;;;;7.47;4.90;;;16.30;99.90;;;;;;5024333;28;20423;-76
2022/07/18 01:16:06;;;;;;;7.78;4.72;;;16.30;99.90;;;;;;5042788;28;20094;-78
2022/07/18 01:18:32;;;;;;;8.85;4.95;;;16.30;99.90;;;;;;5027534;28;20037;-77
2022/07/18 01:20:57;;;;;;;8.48;4.07;;;16.20;99.90;;;;;;5027837;28;20044;-79
2022/07/18 01:23:23;;;;;;;6.63;4.70;;;16.20;99.90;;;;;;5042445;28;20543;-78
2022/07/18 01:25:49;;;;;;;6.88;4.78;;;16.20;99.90;;;;;;5029960;28;20037;-77
2022/07/18 01:28:15;;;;;;;8.93;4.78;;;16.10;99.90;;;;;;5045741;28;20476;-80
2022/07/18 01:30:41;;;;;;;10.30;5.38;;;16.10;99.90;;;;;;5014651;28;20059;-79
2022/07/18 01:33:06;;;;;;;8.05;4.90;;;16.00;99.90;;;;;;5042952;28;20404;-78
2022/07/18 01:35:32;;;;;;;10.23;4.97;;;16.00;99.90;;;;;;5027839;28;20041;-81
2022/07/18 01:38:00;;;;;;;7.53;5.05;;;16.00;99.90;;;;;;5061679;28;20041;-79
2022/07/18 01:40:26;;;;;;;7.57;4.93;;;15.90;99.90;;;;;;5022102;28;20111;-79
2022/07/18 01:42:56;;;;;;;8.70;4.90;;;15.90;99.90;;;;;;5047579;28;20452;-78
2022/07/18 01:45:22;;;;;;;7.20;4.90;;;15.90;99.90;;;;;;5043472;28;21937;-78
2022/07/18 01:47:48;;;;;;;12.82;4.85;;;15.90;99.90;;;;;;5020689;28;20045;-78
2022/07/18 01:50:15;;;;;;;8.05;5.07;;;15.80;99.90;;;;;;5044246;28;20040;-76
2022/07/18 01:52:41;;;;;;;8.07;4.72;;;15.90;99.90;;;;;;5026808;28;20057;-78
2022/07/18 01:55:08;;;;;;;13.25;5.53;;;15.80;99.90;;;;;;5012053;28;20060;-78
2022/07/18 01:57:34;;;;;;;9.18;5.10;;;15.80;99.90;;;;;;5040333;28;20408;-81
2022/07/18 02:00:00;;;;;;;10.57;5.43;;;15.80;99.90;;;;;;5055792;28;20036;-79
2022/07/18 02:02:25;;;;;;;7.22;5.20;;;15.70;99.90;;;;;;5007378;28;20461;-79
2022/07/18 02:05:00;;;;;;;9.23;5.30;;;15.80;99.90;;;;;;5043967;28;20044;-78
2022/07/18 02:07:31;;;;;;;9.60;5.65;;;15.80;99.90;;;;;;5038967;28;20060;-77
2022/07/18 02:09:58;;;;;;;9.40;5.60;;;15.80;99.90;;;;;;5032980;28;20048;-79
2022/07/18 02:12:24;;;;;;;8.65;5.38;;;15.80;99.90;;;;;;5014170;28;20029;-79
2022/07/18 02:14:50;;;;;;;9.32;6.00;;;15.70;99.90;;;;;;5045255;28;20519;-78
2022/07/18 02:17:17;;;;;;;6.25;5.13;;;15.60;99.90;;;;;;5044643;28;20043;-79
2022/07/18 02:19:43;;;;;;;9.05;5.28;;;15.60;99.90;;;;;;5026382;28;21457;-76
2022/07/18 02:22:08;;;;;;;9.73;5.78;;;15.60;99.90;;;;;;5039312;28;20040;-78
2022/07/18 02:24:34;;;;;;;11.27;6.47;;;15.60;99.90;;;;;;5030844;28;20542;-79
2022/07/18 02:27:00;;;;;;;10.80;5.47;;;15.60;99.90;;;;;;5019222;28;20029;-77
2022/07/18 02:29:26;;;;;;;8.68;6.10;;;15.60;99.90;;;;;;5031969;28;20033;-77
2022/07/18 02:31:52;;;;;;;11.38;6.40;;;15.60;99.90;;;;;;5016520;28;20134;-78
2022/07/18 02:34:18;;;;;;;12.50;6.55;;;15.60;99.90;;;;;;5009681;28;20077;-77
2022/07/18 02:36:43;;;;;;;10.95;6.80;;;15.60;99.90;;;;;;5011160;28;20048;-77
2022/07/18 02:39:10;;;;;;;9.80;6.20;;;15.60;99.90;;;;;;5057143;28;20036;-77
2022/07/18 02:41:36;;;;;;;11.52;6.00;;;15.60;99.90;;;;;;5027967;28;20352;-77
2022/07/18 02:44:06;;;;;;;10.20;6.95;;;15.60;99.90;;;;;;5011330;28;20124;-76
2022/07/18 02:46:32;;;;;;;9.73;6.30;;;15.70;99.90;;;;;;5009742;28;20446;-78
2022/07/18 02:48:58;;;;;;;14.18;6.22;;;15.70;99.90;;;;;;5026988;28;20037;-79
2022/07/18 02:51:23;;;;;;;11.10;6.25;;;15.70;99.90;;;;;;5045838;28;20060;-79
2022/07/18 02:53:49;;;;;;;12.45;5.80;;;15.70;99.90;;;;;;5058325;28;20041;-79
2022/07/18 02:56:14;;;;;;;10.23;6.35;;;15.70;99.90;;;;;;5026181;28;20102;-79
2022/07/18 02:58:40;;;;;;;12.13;5.72;;;15.80;99.90;;;;;;5025610;28;20060;-80
2022/07/18 03:01:06;;;;;;;10.98;5.95;;;15.80;99.90;;;;;;5042142;28;20279;-77
2022/07/18 03:03:32;;;;;;;8.13;6.10;;;15.80;99.90;;;;;;5042783;28;20055;-76
2022/07/18 03:05:57;;;;;;;12.65;6.57;;;15.70;99.90;;;;;;5057248;28;20032;-78
2022/07/18 03:08:23;;;;;;;11.68;6.38;;;15.80;99.90;;;;;;5043681;28;20043;-80
2022/07/18 03:10:49;;;;;;;15.15;6.65;;;15.80;99.90;;;;;;5011691;28;20083;-81
2022/07/18 03:13:14;;;;;;;10.48;6.32;;;15.90;99.90;;;;;;5025959;28;20456;-78
2022/07/18 03:15:40;;;;;;;10.68;6.00;;;15.80;99.90;;;;;;5024638;28;20210;-77
2022/07/18 03:18:06;;;;;;;10.40;6.55;;;15.90;99.90;;;;;;5010010;28;20040;-80
2022/07/18 03:20:32;;;;;;;9.98;6.43;;;15.90;99.90;;;;;;5042715;28;20033;-75
2022/07/18 03:22:58;;;;;;;10.43;6.32;;;15.90;99.90;;;;;;5042294;28;20068;-80
2022/07/18 03:25:24;;;;;;;11.63;6.55;;;15.90;99.90;;;;;;5019615;28;20061;-77
2022/07/18 03:27:50;;;;;;;10.32;6.40;;;15.90;99.90;;;;;;5022903;28;20535;-79
2022/07/18 03:30:16;;;;;;;11.18;6.07;;;16.00;99.90;;;;;;5025808;28;20040;-76
2022/07/18 03:32:42;;;;;;;9.60;5.90;;;16.10;99.90;;;;;;5022145;28;20049;-77
2022/07/18 03:35:08;;;;;;;7.90;5.80;;;16.00;99.90;;;;;;5026328;28;20067;-79
2022/07/18 03:37:33;;;;;;;9.95;5.85;;;16.00;99.90;;;;;;5031261;28;20095;-79
2022/07/18 03:39:59;;;;;;;12.95;6.13;;;16.00;99.90;;;;;;5044879;28;20532;-77
2022/07/18 03:42:25;;;;;;;11.02;5.82;;;16.00;99.90;;;;;;5014175;28;20036;-80
2022/07/18 03:44:50;;;;;;;12.25;5.75;;;16.00;99.90;;;;;;5034261;28;20031;-76
2022/07/18 03:47:16;;;;;;;12.32;5.68;;;16.00;99.90;;;;;;5034699;28;20103;-79
2022/07/18 03:49:42;;;;;;;9.00;5.63;;;15.90;99.90;;;;;;5033073;28;20107;-77
2022/07/18 03:52:07;;;;;;;9.85;5.97;;;15.90;99.90;;;;;;5027212;28;20033;-78
2022/07/18 03:54:33;;;;;;;12.63;6.15;;;16.00;99.90;;;;;;5033427;28;20040;-76
2022/07/18 03:56:58;;;;;;;15.18;6.22;;;16.00;99.90;;;;;;5015795;28;20049;-76
2022/07/18 03:59:24;;;;;;;12.63;6.25;;;15.90;99.90;;;;;;5060772;28;20037;-78
2022/07/18 04:01:50;;;;;;;10.63;5.80;;;16.00;99.90;;;;;;5052372;28;20033;-80
2022/07/18 04:04:15;;;;;;;11.25;6.03;;;16.00;99.90;;;;;;5041586;28;20048;-77
2022/07/18 04:06:41;;;;;;;9.65;6.30;;;16.00;99.90;;;;;;5039459;28;20052;-77
2022/07/18 04:09:07;;;;;;;8.15;5.53;;;16.00;99.90;;;;;;5061187;28;20135;-77
2022/07/18 04:11:32;;;;;;;11.95;5.90;;;16.00;99.90;;;;;;5044717;28;20037;-78
2022/07/18 04:13:58;;;;;;;9.95;5.90;;;16.00;99.90;;;;;;5009439;28;20044;-81
2022/07/18 04:16:24;;;;;;;13.57;6.25;;;16.00;99.90;;;;;;5040142;28;20060;-79
2022/07/18 04:18:50;;;;;;;9.13;5.78;;;16.10;99.90;;;;;;5059422;28;20495;-75
2022/07/18 04:21:16;;;;;;;10.68;6.10;;;16.10;99.90;;;;;;5029495;28;20036;-77
2022/07/18 04:23:41;;;;;;;9.32;5.72;;;16.10;99.90;;;;;;5064912;28;20052;-80
2022/07/18 04:26:07;;;;;;;10.88;6.30;;;16.20;99.90;;;;;;5060373;28;20041;-80
2022/07/18 04:28:33;;;;;;;15.45;6.43;;;16.20;99.90;;;;;;5066710;28;20151;-79
2022/07/18 04:30:59;;;;;;;9.95;6.10;;;16.30;99.90;;;;;;5026061;28;20116;-78
2022/07/18 04:33:25;;;;;;;10.02;5.78;;;16.30;99.90;;;;;;5029436;28;20044;-77
2022/07/18 04:35:50;;;;;;;9.45;5.90;;;16.40;99.90;;;;;;5048125;28;20084;-79
2022/07/18 04:38:16;;;;;;;8.80;5.68;;;16.50;99.90;;;;;;5059199;28;20040;-78
2022/07/18 04:40:42;;;;;;;14.77;5.72;;;16.50;99.90;;;;;;5028830;28;20120;-80
2022/07/18 04:43:08;;;;;;;13.18;6.00;;;16.60;99.90;;;;;;5028980;28;20061;-76
2022/07/18 04:45:35;;;;;;;11.40;5.15;;;16.60;99.90;;;;;;5025970;28;20065;-77
2022/07/18 04:48:01;;;;;;;11.35;5.22;;;16.70;99.90;;;;;;5015114;28;20360;-77
2022/07/18 04:50:29;;;;;;;9.05;5.28;;;16.80;99.90;;;;;;5040677;28;20032;-79
2022/07/18 04:52:56;;;;;;;9.73;5.38;;;16.80;99.90;;;;;;5065301;28;20210;-78
2022/07/18 04:55:23;;;;;;;6.55;4.47;;;16.90;99.90;;;;;;5027640;28;20137;-81
2022/07/18 04:57:50;;;;;;;7.60;4.53;;;16.90;99.90;;;;;;5030048;28;20040;-78
2022/07/18 05:00:18;;;;;;;9.30;5.18;;;17.00;99.90;;;;;;5015325;28;20056;-79
2022/07/18 05:02:47;;;;;;;6.93;4.93;;;17.10;99.90;;;;;;5047523;28;20034;-79
2022/07/18 05:05:15;;;;;;;7.07;4.97;;;17.10;99.90;;;;;;5041548;28;20040;-79
2022/07/18 05:07:43;;;;;;;9.70;5.70;;;17.20;99.90;;;;;;5036359;28;20115;-77
2022/07/18 05:10:12;;;;;;;13.10;4.90;;;17.10;99.90;;;;;;5053660;28;20032;-77
2022/07/18 05:12:40;;;;;;;8.52;5.38;;;17.20;99.90;;;;;;5034338;28;20044;-81
2022/07/18 05:15:08;;;;;;;14.50;5.72;;;17.30;99.90;;;;;;5019107;28;20049;-79
2022/07/18 05:17:34;;;;;;;8.20;5.38;;;17.20;99.90;;;;;;5043955;28;20045;-76
2022/07/18 05:20:00;;;;;;;16.63;5.25;;;17.30;99.90;;;;;;5064641;28;20096;-78
2022/07/18 05:22:26;;;;;;;9.23;4.90;;;17.30;99.90;;;;;;5005249;28;20097;-78
2022/07/18 05:24:51;;;;;;;9.52;4.72;;;17.30;99.90;;;;;;5066499;28;20079;-76
2022/07/18 05:27:17;;;;;;;9.25;4.93;;;17.30;99.90;;;;;;5030872;28;20471;-77
2022/07/18 05:29:43;;;;;;;9.43;5.28;;;17.40;99.90;;;;;;5026843;28;20047;-77
2022/07/18 05:32:09;;;;;;;9.13;4.60;;;17.40;99.90;;;;;;5028136;28;20045;-75
2022/07/18 05:34:34;;;;;;;8.32;5.05;;;17.50;99.90;;;;;;5025371;28;20045;-77
2022/07/18 05:37:00;;;;;;;10.13;4.60;;;17.70;99.90;;;;;;5060955;28;20053;-74
2022/07/18 05:39:26;;;;;;;6.03;4.45;;;17.90;99.90;;;;;;5060934;28;20521;-77
2022/07/18 05:41:52;;;;;;;9.95;4.88;;;18.10;99.90;;;;;;5045107;28;20040;-75
2022/07/18 05:44:21;;;;;;;10.70;4.80;;;18.20;99.90;;;;;;5013965;28;20429;-74
2022/07/18 05:46:47;;;;;;;7.15;4.18;;;18.20;99.90;;;;;;5029150;28;20492;-76
2022/07/18 05:49:14;;;;;;;6.70;4.32;;;18.20;99.90;;;;;;5056638;28;20090;-80
2022/07/18 05:51:40;;;;;;;7.97;4.57;;;18.20;99.90;;;;;;5045361;28;20041;-77
2022/07/18 05:54:06;;;;;;;10.52;4.05;;;18.20;99.90;;;;;;5006854;28;20040;-75
2022/07/18 05:56:32;;;;;;;5.75;4.15;;;18.40;99.90;;;;;;5056223;28;20531;-76
2022/07/18 05:58:57;;;;;;;7.63;4.03;;;18.50;99.90;;;;;;5040734;28;20598;-77
2022/07/18 06:01:23;;;;;;;6.03;3.92;;;18.60;99.90;;;;;;5017446;28;20637;-74
2022/07/18 06:03:49;;;;;;;7.18;4.05;;;18.70;99.90;;;;;;5024719;28;20044;-76
2022/07/18 06:06:15;;;;;;;9.50;4.25;;;18.90;99.90;;;;;;5011900;28;20041;-75
2022/07/18 06:08:41;;;;;;;7.38;3.97;;;19.00;99.90;;;;;;5025498;28;20160;-75
2022/07/18 06:11:08;;;;;;;10.88;4.18;;;19.10;99.90;;;;;;5028314;28;20112;-77
2022/07/18 06:13:39;;;;;;;6.53;3.78;;;19.20;99.90;;;;;;5012232;28;20040;-77
2022/07/18 06:16:17;;;;;;;5.45;3.78;;;19.30;99.90;;;;;;5030695;28;20107;-77
2022/07/18 06:18:42;;;;;;;8.20;3.60;;;19.30;99.90;;;;;;5024344;28;20032;-76
2022/07/18 06:21:08;;;;;;;6.18;3.35;;;19.30;99.90;;;;;;5050871;28;20031;-74
2022/07/18 06:23:35;;;;;;;6.00;3.47;;;19.40;99.90;;;;;;5017618;28;20419;-76
2022/07/18 06:26:02;;;;;;;6.35;3.88;;;19.40;99.90;;;;;;5060294;28;20079;-76
2022/07/18 06:28:28;;;;;;;6.15;3.83;;;19.60;99.90;;;;;;5045413;28;20052;-79
2022/07/18 06:30:55;;;;;;;17.58;3.90;;;19.80;99.90;;;;;;5055894;28;20049;-77
2022/07/18 06:33:21;;;;;;;4.68;3.55;;;19.80;99.90;;;;;;5024338;28;20453;-75
2022/07/18 06:35:47;;;;;;;9.52;3.70;;;20.00;99.90;;;;;;5006943;28;20317;-77
2022/07/18 06:38:14;;;;;;;9.38;3.47;;;20.10;99.90;;;;;;5011267;28;20056;-76
2022/07/18 06:40:39;;;;;;;7.88;3.20;;;20.10;99.90;;;;;;5019165;28;20067;-75
2022/07/18 06:43:06;;;;;;;9.77;3.42;;;20.20;99.90;;;;;;5029268;28;20440;-75
2022/07/18 06:45:33;;;;;;;7.05;3.05;;;20.20;99.90;;;;;;5028481;28;20403;-75
2022/07/18 06:47:58;;;;;;;8.18;3.00;;;20.20;99.90;;;;;;5029734;28;20068;-77
2022/07/18 06:50:24;;;;;;;9.63;3.45;;;20.20;99.90;;;;;;5044005;28;20396;-73
2022/07/18 06:52:50;;;;;;;6.13;2.97;;;20.20;99.90;;;;;;5046993;28;20040;-76
2022/07/18 06:55:16;;;;;;;6.20;3.22;;;20.30;99.90;;;;;;5055973;28;20060;-74
2022/07/18 06:57:43;;;;;;;6.38;2.90;;;20.40;99.90;;;;;;5058086;28;20060;-76
2022/07/18 07:00:10;;;;;;;8.50;2.72;;;20.40;99.90;;;;;;5023156;28;20118;-77
2022/07/18 07:02:42;;;;;;;8.18;3.10;;;20.50;99.90;;;;;;5007629;28;20037;-75
2022/07/18 07:05:08;;;;;;;3.55;2.40;;;20.60;99.90;;;;;;5008173;28;20111;-75
2022/07/18 07:07:34;;;;;;;8.07;2.97;;;20.60;99.90;;;;;;5033639;28;20211;-75
2022/07/18 07:10:00;;;;;;;11.98;3.13;;;20.80;99.90;;;;;;5030821;28;20333;-74
2022/07/18 07:12:25;;;;;;;10.93;2.75;;;20.90;99.90;;;;;;5065232;28;20131;-75
2022/07/18 07:14:51;;;;;;;6.13;2.78;;;20.90;99.90;;;;;;5049271;28;20184;-75
2022/07/18 07:17:17;;;;;;;5.95;3.10;;;21.00;99.90;;;;;;5026178;28;20049;-76
2022/07/18 07:19:42;;;;;;;11.80;3.30;;;21.10;99.90;;;;;;5015667;28;20144;-74
2022/07/18 07:22:08;;;;;;;7.13;2.67;;;21.20;99.90;;;;;;5047305;28;20487;-75
2022/07/18 07:24:33;;;;;;;9.18;2.60;;;21.20;99.90;;;;;;5051473;28;20029;-75
2022/07/18 07:27:00;;;;;;;8.07;2.50;;;21.30;99.90;;;;;;5027896;28;20143;-75
2022/07/18 07:29:25;;;;;;;4.78;2.33;;;21.30;99.90;;;;;;5048369;28;20053;-74
2022/07/18 07:31:51;;;;;;;7.25;2.53;;;21.50;99.90;;;;;;5029140;28;20048;-73
2022/07/18 07:34:17;;;;;;;4.95;2.33;;;21.60;99.90;;;;;;5048605;28;20545;-73
2022/07/18 07:36:42;;;;;;;7.30;2.35;;;21.80;99.90;;;;;;5058787;28;20136;-81
2022/07/18 07:39:08;;;;;;;8.70;2.60;;;21.90;99.90;;;;;;5013821;28;20080;-76
2022/07/18 07:41:34;;;;;;;7.68;2.15;;;22.10;99.90;;;;;;5035879;28;20036;-75
2022/07/18 07:44:01;;;;;;;7.53;2.38;;;22.20;99.90;;;;;;5004855;28;20049;-75
2022/07/18 07:46:27;;;;;;;3.88;1.98;;;22.30;99.90;;;;;;5044525;28;20060;-74
2022/07/18 07:48:52;;;;;;;6.90;2.03;;;22.50;99.90;;;;;;5045656;28;20454;-74
2022/07/18 07:51:18;;;;;;;4.70;2.05;;;22.60;99.90;;;;;;5042019;28;20745;-75
2022/07/18 07:53:44;;;;;;;5.72;2.30;;;22.60;99.90;;;;;;5070806;28;20045;-74
2022/07/18 07:56:10;;;;;;;5.45;2.20;;;22.70;99.90;;;;;;5032694;28;20049;-74
2022/07/18 07:58:36;;;;;;;11.57;2.20;;;22.90;99.90;;;;;;5037351;28;20167;-74
2022/07/18 08:01:02;;;;;;;5.13;2.20;;;23.00;99.90;;;;;;5047177;28;20123;-74
2022/07/18 08:03:28;;;;;;;5.03;2.00;;;23.20;99.90;;;;;;5048702;28;20072;-75
2022/07/18 08:05:53;;;;;;;5.28;2.17;;;23.50;99.90;;;;;;5015533;28;20436;-75
2022/07/18 08:08:19;;;;;;;6.68;2.00;;;23.60;99.90;;;;;;5041567;28;20045;-73
2022/07/18 08:10:48;;;;;;;4.57;2.00;;;23.70;99.90;;;;;;5035071;28;20037;-74
2022/07/18 08:13:14;;;;;;;7.70;2.35;;;23.80;99.90;;;;;;5018898;28;20049;-75
2022/07/18 08:15:40;;;;;;;7.53;2.00;;;23.70;99.90;;;;;;5028725;28;20354;-75
2022/07/18 08:18:06;;;;;;;7.55;2.15;;;23.80;99.90;;;;;;5016766;28;20160;-74
2022/07/18 08:20:33;;;;;;;4.55;2.00;;;23.90;99.90;;;;;;5029129;28;20120;-75
2022/07/18 08:23:00;;;;;;;6.35;1.90;;;24.00;99.90;;;;;;5061129;28;20053;-74
2022/07/18 08:25:28;;;;;;;5.28;2.42;;;24.20;99.90;;;;;;5031714;28;20044;-75
2022/07/18 08:27:54;;;;;;;4.82;2.10;;;24.30;99.90;;;;;;5043388;28;20045;-73
2022/07/18 08:30:20;;;;;;;13.60;2.17;;;24.50;99.80;;;;;;5061251;28;20077;-75
2022/07/18 08:32:45;;;;;;;8.07;2.38;;;24.70;99.40;;;;;;5051546;28;20052;-75
2022/07/18 08:35:11;;;;;;;7.85;1.90;;;24.90;99.50;;;;;;5057992;28;20056;-75
2022/07/18 08:37:37;;;;;;;6.47;1.73;;;25.00;99.20;;;;;;5062146;28;20084;-74
2022/07/18 08:40:04;;;;;;;4.03;1.90;;;25.20;99.00;;;;;;5034372;28;20523;-76
2022/07/18 08:42:32;;;;;;;3.30;1.80;;;25.30;98.80;;;;;;5042630;28;20039;-73
2022/07/18 08:44:57;;;;;;;4.30;1.73;;;25.40;98.60;;;;;;5049055;28;20087;-75
2022/07/18 08:47:25;;;;;;;6.15;2.05;;;25.50;98.80;;;;;;5027344;28;20469;-76
2022/07/18 08:49:53;;;;;;;6.57;1.70;;;25.60;98.40;;;;;;5018241;28;20060;-75
2022/07/18 08:52:20;;;;;;;4.05;1.60;;;25.70;98.10;;;;;;5035942;28;20053;-74
2022/07/18 08:54:48;;;;;;;4.88;1.80;;;25.70;98.00;;;;;;5047614;28;20046;-75
2022/07/18 08:57:14;;;;;;;6.32;1.90;;;25.80;98.10;;;;;;5034477;28;20056;-76
2022/07/18 08:59:40;;;;;;;6.65;1.80;;;25.80;98.10;;;;;;5034381;28;20048;-74
2022/07/18 09:02:07;;;;;;;8.55;1.80;;;25.80;97.90;;;;;;5061258;28;20048;-76
2022/07/18 09:04:43;;;;;;;5.50;1.70;;;25.80;98.20;;;;;;5021736;28;20095;-74
2022/07/18 09:07:22;;;;;;;3.70;1.60;;;25.80;97.80;;;;;;5013028;28;20096;-74
2022/07/18 09:09:57;;;;;;;4.63;1.95;;;25.80;98.10;;;;;;5031365;28;20098;-76
2022/07/18 09:12:25;;;;;;;4.60;1.65;;;25.80;98.00;;;;;;5039277;28;20045;-76
2022/07/18 09:14:51;;;;;;;8.05;1.63;;;25.90;98.10;;;;;;5027553;28;20049;-75
2022/07/18 09:17:29;;;;;;;7.45;1.70;;;26.00;98.00;;;;;;5027191;28;20395;-76
2022/07/18 09:20:08;;;;;;;7.55;1.63;;;25.90;97.90;;;;;;5072140;28;20045;-76
2022/07/18 09:22:37;;;;;;;8.88;1.92;;;26.00;97.90;;;;;;5033519;28;20049;-77
2022/07/18 09:25:07;;;;;;;7.82;1.85;;;26.10;97.80;;;;;;5016695;28;20468;-76
2022/07/18 09:27:36;;;;;;;8.55;1.70;;;26.20;97.70;;;;;;5052516;28;20435;-75
2022/07/18 09:30:20;;;;;;;6.50;1.75;;;26.40;97.40;;;;;;5017564;28;20070;-77
2022/07/18 09:32:50;;;;;;;5.43;1.70;;;26.60;97.40;;;;;;5025340;28;20156;-76
2022/07/18 09:35:20;;;;;;;6.95;2.08;;;26.70;97.20;;;;;;5028942;28;20054;-78
2022/07/18 09:38:07;;;;;;;5.97;1.38;;;26.90;96.50;;;;;;5068249;28;20098;-77
2022/07/18 09:40:57;;;;;;;7.85;1.67;;;26.90;95.70;;;;;;5061395;28;20099;-75
2022/07/18 09:43:23;;;;;;;6.60;1.65;;;27.00;95.80;;;;;;5045102;28;20073;-78
2022/07/18 09:45:52;;;;;;;6.00;1.63;;;27.00;95.80;;;;;;5014880;28;20139;-78
2022/07/18 09:48:27;;;;;;;7.40;1.75;;;26.90;95.60;;;;;;5056872;28;20456;-76
2022/07/18 09:50:55;;;;;;;4.78;1.70;;;26.90;95.60;;;;;;5041443;28;20136;-74
2022/07/18 09:53:37;;;;;;;6.25;1.70;;;27.10;95.40;;;;;;5033185;28;20417;-75
2022/07/18 09:56:06;;;;;;;5.30;1.48;;;27.20;95.50;;;;;;5017142;28;20132;-76
2022/07/18 09:58:35;;;;;;;8.18;1.70;;;27.30;95.90;;;;;;5032226;28;20412;-75
2022/07/18 10:01:02;;;;;;;5.22;1.65;;;27.50;95.80;;;;;;5034308;28;20037;-76
2022/07/18 10:03:28;;;;;;;7.75;1.65;;;27.80;95.70;;;;;;5062442;28;20103;-76
2022/07/18 10:05:56;;;;;;;3.92;1.90;;;27.80;95.20;;;;;;5031173;28;20063;-75
2022/07/18 10:08:26;;;;;;;8.13;1.90;;;28.10;95.30;;;;;;5036701;28;20055;-75
2022/07/18 10:10:54;;;;;;;7.80;2.08;;;28.10;95.00;;;;;;5030096;28;20449;-77
2022/07/18 10:13:23;;;;;;;6.38;2.03;;;28.10;94.50;;;;;;5046465;28;20099;-75
2022/07/18 10:15:50;;;;;;;8.05;2.20;;;28.30;94.40;;;;;;5029416;28;20056;-75
2022/07/18 10:18:21;;;;;;;4.90;1.77;;;28.30;94.80;;;;;;5034738;28;20151;-76
2022/07/18 10:21:08;;;;;;;8.45;2.28;;;28.40;94.90;;;;;;5031985;28;20056;-75
2022/07/18 10:23:37;;;;;;;5.35;1.90;;;28.50;93.70;;;;;;5043370;28;20055;-76
2022/07/18 10:26:19;;;;;;;6.57;2.30;;;28.60;94.00;;;;;;5013693;28;20049;-76
2022/07/18 10:28:58;;;;;;;5.22;2.40;;;28.60;93.20;;;;;;5047306;28;20349;-76
2022/07/18 10:31:28;;;;;;;5.50;2.50;;;28.80;93.20;;;;;;5043764;28;20049;-77
2022/07/18 10:34:11;;;;;;;6.15;2.20;;;28.80;92.30;;;;;;5061220;28;20063;-75
2022/07/18 10:36:39;;;;;;;5.03;2.10;;;28.80;92.20;;;;;;5026768;28;20515;-76
2022/07/18 10:39:15;;;;;;;5.40;2.58;;;28.80;92.70;;;;;;5043175;28;20044;-76
2022/07/18 10:41:43;;;;;;;9.10;2.88;;;29.00;92.40;;;;;;5012209;28;20049;-78
2022/07/18 10:44:24;;;;;;;6.53;2.97;;;29.10;92.20;;;;;;5011952;28;20049;-75
2022/07/18 10:47:09;;;;;;;5.70;2.95;;;29.40;92.10;;;;;;5010505;28;20126;-76
2022/07/18 10:49:47;;;;;;;6.95;2.60;;;29.60;92.30;;;;;;5036293;28;20203;-79
2022/07/18 10:52:36;;;;;;;3.92;2.13;;;29.60;91.10;;;;;;5032141;28;20181;-76
2022/07/18 10:55:05;;;;;;;6.00;2.60;;;29.70;90.50;;;;;;5015199;28;20053;-76
2022/07/18 10:57:47;;;;;;;6.90;2.22;;;29.60;91.00;;;;;;5042104;28;20045;-75
2022/07/18 11:00:16;;;;;;;4.43;2.47;;;29.60;91.30;;;;;;5032191;28;20049;-77
2022/07/18 11:02:44;;;;;;;3.65;2.10;;;29.70;91.30;;;;;;5046340;28;20053;-78
2022/07/18 11:05:25;;;;;;;4.90;2.90;;;30.00;91.30;;;;;;5030566;28;20033;-77
2022/07/18 11:08:13;;;;;;;4.15;2.70;;;30.40;91.30;;;;;;5033922;28;20442;-80
2022/07/18 11:10:41;;;;;;;4.05;2.45;;;30.70;90.30;;;;;;5013236;28;20538;-78
2022/07/18 11:13:28;;;;;;;7.40;2.67;;;30.70;90.70;;;;;;5059979;28;20426;-80
2022/07/18 11:16:24;;;;;;;2.97;2.30;;;30.50;88.80;;;;;;5023589;28;20067;-79
2022/07/18 11:18:50;;;;;;;7.75;2.97;;;30.60;90.00;;;;;;5020377;28;20045;-79
2022/07/18 11:21:19;;;;;;;5.63;2.90;;;30.70;90.10;;;;;;5045075;28;20374;-81
2022/07/18 11:23:47;;;;;;;4.63;2.53;;;31.00;90.00;;;;;;5032704;28;20036;-77
2022/07/18 11:26:22;;;;;;;6.03;2.70;;;31.10;89.30;;;;;;5030148;28;20041;-78
2022/07/18 11:28:55;;;;;;;5.75;2.50;;;31.40;89.20;;;;;;5037326;28;20046;-82
2022/07/18 11:31:26;;;;;;;7.53;2.72;;;31.50;90.10;;;;;;5031826;28;20075;-81
2022/07/18 11:33:52;;;;;;;4.95;2.85;;;31.70;88.70;;;;;;5029626;28;20450;-75
2022/07/18 11:36:20;;;;;;;4.60;2.72;;;31.80;89.20;;;;;;5061138;28;20045;-77
2022/07/18 11:38:47;;;;;;;4.03;2.67;;;31.90;89.10;;;;;;5020469;28;20045;-78
2022/07/18 11:41:13;;;;;;;4.78;2.92;;;32.20;89.90;;;;;;5025998;28;20485;-77
2022/07/18 11:43:39;;;;;;;5.10;2.83;;;32.10;88.60;;;;;;5050877;28;20076;-75
2022/07/18 11:46:07;;;;;;;5.32;2.97;;;32.10;88.20;;;;;;5021140;28;20073;-81
2022/07/18 11:48:34;;;;;;;6.78;3.10;;;32.20;87.20;;;;;;5051899;28;20120;-79
2022/07/18 11:51:04;;;;;;;7.88;2.83;;;32.30;87.90;;;;;;5045180;28;20064;-79
2022/07/18 11:53:30;;;;;;;8.48;3.05;;;32.30;87.40;;;;;;5030404;28;20106;-80
2022/07/18 11:55:56;;;;;;;5.60;2.53;;;32.30;87.10;;;;;;5012600;28;20049;-81
2022/07/18 11:58:22;;;;;;;4.75;2.75;;;32.20;87.20;;;;;;5028216;28;20044;-79
2022/07/18 12:00:48;;;;;;;4.32;2.70;;;32.40;88.10;;;;;;5025423;28;20042;-79
2022/07/18 12:03:24;;;;;;;5.03;2.88;;;32.50;86.30;;;;;;5031220;28;20128;-79
2022/07/18 12:05:52;;;;;;;3.97;3.55;;;32.50;86.00;;;;;;5023655;28;20044;-78
2022/07/18 12:08:41;;;;;;;7.50;3.42;;;33.10;86.20;;;;;;5047495;28;20076;-77
2022/07/18 12:11:17;;;;;;;6.00;3.45;;;33.20;83.00;;;;;;5043664;28;20080;-78
2022/07/18 12:13:55;;;;;;;3.70;2.78;;;33.10;83.10;;;;;;5048067;28;20045;-80
2022/07/18 12:16:43;;;;;;;6.68;3.17;;;32.90;83.20;;;;;;5018619;28;20052;-81
2022/07/18 12:23:13;;;;;;;3.42;3.08;;;32.90;83.90;;;;;;5051597;28;20052;-79
2022/07/18 12:25:40;;;;;;;5.80;3.25;;;33.40;83.10;;;;;;5039544;28;20134;-82
2022/07/18 12:28:17;;;;;;;3.97;2.83;;;33.40;84.10;;;;;;5015843;28;20081;-77
2022/07/18 12:30:43;;;;;;;7.28;3.03;;;33.70;84.10;;;;;;5062856;28;20056;-76
2022/07/18 12:33:09;;;;;;;5.47;2.90;;;33.80;83.50;;;;;;5012294;28;20056;-78
2022/07/18 12:35:36;;;;;;;4.53;2.95;;;33.80;83.40;;;;;;5030297;28;20048;-78
2022/07/18 12:38:10;;;;;;;8.82;3.67;;;33.60;83.00;;;;;;5026471;28;20518;-77
2022/07/18 12:40:44;;;;;;;11.50;3.55;;;33.40;81.80;;;;;;5043419;28;20400;-79
2022/07/18 12:43:16;;;;;;;8.07;3.50;;;33.50;81.90;;;;;;5059822;28;20037;-77
2022/07/18 12:45:43;;;;;;;5.57;2.97;;;33.50;82.20;;;;;;5030603;28;21040;-75
2022/07/18 12:48:11;;;;;;;5.18;3.00;;;33.60;81.70;;;;;;5033661;28;20047;-75
2022/07/18 12:50:37;;;;;;;4.90;2.88;;;33.10;81.90;;;;;;5028374;28;20049;-77
2022/07/18 12:53:04;;;;;;;4.93;3.30;;;32.60;82.60;;;;;;5033167;28;20120;-75
2022/07/18 12:55:30;;;;;;;5.57;2.85;;;32.30;82.70;;;;;;5044437;28;20054;-77